Time;durP1;ratioP1;P1;durP2;ratioP2;P2;SDS_P1;SDS_P2;PMS_P1;PMS_P2;Temp;Humidity;BMP_temperature;BMP_pressure;BME280_temperature;BME280_humidity;BME280_pressure;Samples;Min_cycle;Max_cycle;Signal;HPM_P1;HPM_P2
2023/05/19 00:00:23;;;;;;;6.63;4.30;;;;;;;10.19;100.00;96746.88;5071195;27;101829;-61
2023/05/19 00:02:51;;;;;;;5.70;4.03;;;;;;;10.19;100.00;96741.56;5071106;27;102856;-61
2023/05/19 00:05:21;;;;;;;8.00;4.50;;;;;;;10.13;100.00;96732.69;5070630;27;102519;-61
2023/05/19 00:07:52;;;;;;;6.00;3.90;;;;;;;10.12;100.00;96738.22;5071163;27;101865;-61
2023/05/19 00:10:20;;;;;;;5.87;4.03;;;;;;;10.16;100.00;96734.88;5071048;27;102348;-61
2023/05/19 00:12:47;;;;;;;8.10;4.37;;;;;;;10.11;100.00;96723.31;5070317;27;103147;-61
2023/05/19 00:15:15;;;;;;;5.47;3.90;;;;;;;10.04;100.00;96735.97;5070974;27;101832;-61
2023/05/19 00:17:42;;;;;;;5.53;3.80;;;;;;;10.08;100.00;96729.13;5071340;27;102333;-61
2023/05/19 00:20:11;;;;;;;7.20;3.93;;;;;;;10.05;100.00;96733.06;5073773;27;102867;-61
2023/05/19 00:22:42;;;;;;;7.60;4.10;;;;;;;10.05;100.00;96729.59;5070815;27;102154;-61
2023/05/19 00:25:10;;;;;;;6.30;4.20;;;;;;;10.00;100.00;96729.47;5068957;27;106276;-61
2023/05/19 00:27:37;;;;;;;8.03;4.43;;;;;;;10.08;100.00;96721.94;5068918;27;101873;-61
2023/05/19 00:30:04;;;;;;;5.33;3.83;;;;;;;10.00;100.00;96710.88;5070544;27;102347;-61
2023/05/19 00:32:31;;;;;;;7.30;4.77;;;;;;;10.00;100.00;96724.16;5068875;27;105745;-61
2023/05/19 00:34:58;;;;;;;4.83;3.90;;;;;;;10.02;100.00;96720.22;5069106;27;101960;-61
2023/05/19 00:37:25;;;;;;;5.40;4.10;;;;;;;9.99;100.00;96722.56;5069471;27;105731;-61
2023/05/19 00:39:53;;;;;;;5.43;3.90;;;;;;;9.98;100.00;96719.06;5068556;27;105614;-61
2023/05/19 00:42:21;;;;;;;6.93;4.07;;;;;;;10.02;100.00;96714.91;5072561;27;101907;-61
2023/05/19 00:44:48;;;;;;;6.30;4.00;;;;;;;10.06;100.00;96712.59;5069911;27;102095;-61
2023/05/19 00:47:15;;;;;;;7.30;4.37;;;;;;;10.18;100.00;96708.03;5069072;27;102422;-61
2023/05/19 00:49:42;;;;;;;4.40;3.87;;;;;;;10.15;100.00;96706.66;5070557;27;102343;-61
2023/05/19 00:52:09;;;;;;;5.93;3.93;;;;;;;10.08;100.00;96707.88;5068410;27;105561;-61
2023/05/19 00:54:36;;;;;;;6.70;4.40;;;;;;;10.06;100.00;96710.75;5069105;27;102243;-61
2023/05/19 00:57:06;;;;;;;5.90;4.20;;;;;;;10.09;100.00;96712.13;5069137;27;105709;-61
2023/05/19 00:59:32;;;;;;;4.57;3.83;;;;;;;10.08;100.00;96706.00;5068240;27;105475;-61
2023/05/19 01:02:01;;;;;;;6.23;4.00;;;;;;;10.11;100.00;96699.41;5068369;27;101911;-61
2023/05/19 01:04:33;;;;;;;8.63;3.97;;;;;;;10.06;100.00;96705.44;5071401;27;105171;-60
2023/05/19 01:07:00;;;;;;;4.90;3.80;;;;;;;10.06;100.00;96704.63;5069129;27;102435;-60
2023/05/19 01:09:29;;;;;;;5.97;3.80;;;;;;;10.11;100.00;96705.53;5069283;27;105535;-61
2023/05/19 01:11:56;;;;;;;5.87;4.30;;;;;;;10.14;100.00;96701.59;5067774;27;105563;-61
2023/05/19 01:14:25;;;;;;;7.13;4.00;;;;;;;10.17;100.00;96699.28;5068702;27;102233;-61
2023/05/19 01:17:04;;;;;;;6.40;4.43;;;;;;;10.24;100.00;96699.91;5068965;27;105662;-61
2023/05/19 01:19:55;;;;;;;6.90;4.20;;;;;;;10.29;100.00;96700.00;5068307;27;105637;-60
2023/05/19 01:22:53;;;;;;;5.83;4.07;;;;;;;10.25;100.00;96714.81;5070441;27;102296;-60
2023/05/19 01:25:48;;;;;;;4.33;3.80;;;;;;;10.27;100.00;96703.94;5068835;27;105843;-60
2023/05/19 01:28:47;;;;;;;6.23;3.63;;;;;;;10.23;100.00;96706.28;5070867;27;101950;-60
2023/05/19 01:31:18;;;;;;;5.67;3.83;;;;;;;10.14;100.00;96706.91;5068761;27;103499;-60
2023/05/19 01:33:46;;;;;;;10.07;4.30;;;;;;;10.17;100.00;96706.41;5069496;27;102607;-60
2023/05/19 01:36:15;;;;;;;5.57;4.30;;;;;;;10.12;100.00;96711.66;5070015;27;101717;-60
2023/05/19 01:38:44;;;;;;;5.67;4.20;;;;;;;10.07;100.00;96706.25;5068591;27;103553;-60
2023/05/19 01:41:12;;;;;;;7.27;4.40;;;;;;;10.06;100.00;96709.94;5067618;27;105928;-60
2023/05/19 01:43:39;;;;;;;6.50;4.10;;;;;;;10.03;100.00;96707.75;5069946;27;102266;-60
2023/05/19 01:46:06;;;;;;;6.63;4.57;;;;;;;10.04;100.00;96706.72;5068188;27;105113;-60
2023/05/19 01:48:35;;;;;;;6.60;4.30;;;;;;;9.93;100.00;96708.34;5071233;27;105348;-60
2023/05/19 01:51:02;;;;;;;6.47;4.50;;;;;;;9.88;100.00;96708.25;5068282;27;105249;-60
2023/05/19 01:53:29;;;;;;;8.03;4.77;;;;;;;9.90;100.00;96708.03;5067716;27;104053;-60
2023/05/19 01:55:59;;;;;;;6.10;4.30;;;;;;;9.92;100.00;96711.28;5068104;27;101976;-60
2023/05/19 01:58:37;;;;;;;6.70;3.90;;;;;;;9.83;100.00;96702.06;5068077;27;104971;-61
2023/05/19 02:01:16;;;;;;;5.67;4.10;;;;;;;9.84;100.00;96708.97;5067593;27;105228;-61
2023/05/19 02:04:01;;;;;;;7.50;4.10;;;;;;;9.91;100.00;96701.66;5069828;27;101722;-61
2023/05/19 02:06:36;;;;;;;8.13;4.37;;;;;;;9.87;100.00;96708.53;5067936;27;105477;-61
2023/05/19 02:09:08;;;;;;;7.30;4.43;;;;;;;9.79;100.00;96704.41;5067563;27;105760;-60
2023/05/19 02:11:37;;;;;;;5.47;4.30;;;;;;;9.74;100.00;96700.81;5071670;27;102411;-61
2023/05/19 02:14:25;;;;;;;7.67;4.70;;;;;;;9.66;100.00;96698.56;5069899;27;103680;-61
2023/05/19 02:16:53;;;;;;;7.23;4.60;;;;;;;9.58;100.00;96701.56;5071309;27;102095;-61
2023/05/19 02:19:23;;;;;;;8.87;4.90;;;;;;;9.54;100.00;96703.09;5071473;27;105225;-61
2023/05/19 02:21:51;;;;;;;6.23;4.70;;;;;;;9.47;100.00;96697.09;5071025;27;105376;-60
2023/05/19 02:24:18;;;;;;;9.47;5.57;;;;;;;9.44;100.00;96708.22;5071208;27;101826;-60
2023/05/19 02:26:47;;;;;;;6.80;5.20;;;;;;;9.41;100.00;96704.19;5071203;27;105183;-61
2023/05/19 02:29:15;;;;;;;10.37;5.47;;;;;;;9.36;100.00;96697.94;5070007;27;105575;-62
2023/05/19 02:31:42;;;;;;;11.47;5.50;;;;;;;9.39;100.00;96702.81;5071368;27;101869;-61
2023/05/19 02:34:10;;;;;;;10.20;5.60;;;;;;;9.40;100.00;96699.91;5074017;27;105104;-61
2023/05/19 02:36:42;;;;;;;9.00;5.40;;;;;;;9.38;100.00;96701.19;5071312;27;101848;-61
2023/05/19 02:39:09;;;;;;;8.00;5.20;;;;;;;9.44;100.00;96689.63;5071242;27;105958;-61
2023/05/19 02:41:37;;;;;;;10.43;5.03;;;;;;;9.37;100.00;96683.66;5070363;27;105846;-61
2023/05/19 02:44:04;;;;;;;8.17;5.30;;;;;;;9.36;100.00;96688.16;5072605;27;102076;-60
2023/05/19 02:46:31;;;;;;;9.93;5.80;;;;;;;9.41;100.00;96696.22;5070916;27;104926;-60
2023/05/19 02:48:58;;;;;;;9.70;6.00;;;;;;;9.36;100.00;96684.69;5070275;27;105107;-61
2023/05/19 02:51:25;;;;;;;8.97;6.30;;;;;;;9.33;100.00;96690.47;5072653;27;102195;-61
2023/05/19 02:53:54;;;;;;;8.87;5.30;;;;;;;9.39;100.00;96690.31;5072168;27;102661;-61
2023/05/19 02:56:21;;;;;;;8.60;6.20;;;;;;;9.35;100.00;96681.22;5073780;27;105467;-61
2023/05/19 02:58:48;;;;;;;8.23;5.37;;;;;;;9.45;100.00;96685.94;5070824;27;104831;-61
2023/05/19 03:01:15;;;;;;;8.33;5.20;;;;;;;9.50;100.00;96678.88;5070004;27;105583;-61
2023/05/19 03:03:42;;;;;;;7.40;4.97;;;;;;;9.48;100.00;96674.84;5070835;27;102099;-61
2023/05/19 03:06:09;;;;;;;7.90;5.57;;;;;;;9.41;100.00;96672.31;5070959;27;105797;-61
2023/05/19 03:08:36;;;;;;;7.40;5.70;;;;;;;9.49;100.00;96676.47;5071514;27;102510;-61
2023/05/19 03:11:04;;;;;;;8.50;5.70;;;;;;;9.51;100.00;96675.19;5070637;27;102113;-61
2023/05/19 03:13:32;;;;;;;5.30;4.80;;;;;;;9.54;100.00;96673.91;5070485;27;105241;-61
2023/05/19 03:15:59;;;;;;;8.33;5.37;;;;;;;9.53;100.00;96675.75;5069923;27;104253;-61
2023/05/19 03:18:26;;;;;;;10.93;5.47;;;;;;;9.38;100.00;96677.31;5074124;27;102187;-61
2023/05/19 03:20:54;;;;;;;6.83;5.07;;;;;;;9.29;100.00;96681.34;5071357;27;102561;-61
2023/05/19 03:23:21;;;;;;;8.87;5.73;;;;;;;9.31;100.00;96685.38;5070584;27;101897;-60
2023/05/19 03:25:48;;;;;;;12.13;5.37;;;;;;;9.33;100.00;96682.50;5069527;27;103755;-60
2023/05/19 03:28:17;;;;;;;9.70;5.40;;;;;;;9.35;100.00;96675.94;5070780;27;102624;-60
2023/05/19 03:30:44;;;;;;;11.27;5.43;;;;;;;9.38;100.00;96679.97;5072016;27;101756;-61
2023/05/19 03:33:15;;;;;;;10.40;5.57;;;;;;;9.37;100.00;96676.47;5070505;27;104446;-60
2023/05/19 03:35:43;;;;;;;9.67;5.67;;;;;;;9.35;100.00;96672.44;5069967;27;105543;-60
2023/05/19 03:38:10;;;;;;;8.17;5.50;;;;;;;9.30;100.00;96667.03;5073753;27;102051;-60
2023/05/19 03:40:40;;;;;;;9.07;5.60;;;;;;;9.30;100.00;96675.81;5069257;27;103974;-61
2023/05/19 03:43:10;;;;;;;8.73;5.50;;;;;;;9.29;100.00;96676.06;5070295;27;102023;-60
2023/05/19 03:45:45;;;;;;;9.13;5.20;;;;;;;9.32;100.00;96679.03;5070296;27;104988;-60
2023/05/19 03:48:38;;;;;;;9.37;5.70;;;;;;;9.31;100.00;96677.44;5045443;27;102684;-60
2023/05/19 03:51:28;;;;;;;9.90;5.33;;;;;;;9.29;100.00;96678.72;5059595;27;101898;-60
2023/05/19 03:54:02;;;;;;;8.47;5.60;;;;;;;9.36;100.00;96679.38;5069601;27;105099;-60
2023/05/19 03:56:29;;;;;;;8.33;5.63;;;;;;;9.35;100.00;96680.41;5069736;27;105496;-60
2023/05/19 03:58:56;;;;;;;10.17;5.93;;;;;;;9.40;100.00;96681.34;5069918;27;102029;-61
2023/05/19 04:01:25;;;;;;;8.70;5.53;;;;;;;9.44;100.00;96684.31;5074295;27;101989;-60
2023/05/19 04:03:53;;;;;;;12.43;5.23;;;;;;;9.50;100.00;96678.06;5069748;27;102037;-61
2023/05/19 04:06:19;;;;;;;10.83;5.77;;;;;;;9.51;100.00;96677.03;5070127;27;105113;-61
2023/05/19 04:08:47;;;;;;;9.43;5.67;;;;;;;9.52;100.00;96678.63;5069088;27;103693;-60
2023/05/19 04:11:14;;;;;;;10.20;5.77;;;;;;;9.66;100.00;96677.31;5070883;27;101814;-61
2023/05/19 04:13:41;;;;;;;11.03;5.60;;;;;;;9.75;100.00;96683.88;5069827;27;103528;-61
2023/05/19 04:16:08;;;;;;;10.33;5.90;;;;;;;9.80;100.00;96684.75;5068854;27;105781;-61
2023/05/19 04:18:37;;;;;;;10.57;5.70;;;;;;;9.88;100.00;96680.91;5071277;27;101840;-61
2023/05/19 04:21:04;;;;;;;8.30;5.23;;;;;;;9.86;100.00;96675.81;5071028;27;102813;-61
2023/05/19 04:23:31;;;;;;;8.00;5.17;;;;;;;9.74;100.00;96677.75;5072208;27;105461;-61
2023/05/19 04:26:00;;;;;;;8.13;5.30;;;;;;;9.87;100.00;96681.97;5069373;27;105244;-61
2023/05/19 04:28:27;;;;;;;10.50;5.37;;;;;;;9.95;100.00;96673.59;5068261;27;106072;-61
2023/05/19 04:30:57;;;;;;;13.47;5.60;;;;;;;10.05;100.00;96677.28;5069353;27;101866;-61
2023/05/19 04:33:25;;;;;;;7.60;5.50;;;;;;;10.14;100.00;96677.69;5069542;27;105516;-61
2023/05/19 04:35:53;;;;;;;8.97;5.27;;;;;;;10.14;100.00;96675.81;5068719;27;105393;-61
2023/05/19 04:38:20;;;;;;;8.37;4.70;;;;;;;10.25;100.00;96682.13;5069008;27;101913;-61
2023/05/19 04:40:50;;;;;;;7.17;4.90;;;;;;;10.36;100.00;96679.38;5069127;27;105316;-61
2023/05/19 04:43:18;;;;;;;8.20;4.93;;;;;;;10.45;100.00;96682.44;5068692;27;105039;-61
2023/05/19 04:45:46;;;;;;;8.23;5.30;;;;;;;10.44;100.00;96684.31;5072860;27;101935;-61
2023/05/19 04:48:13;;;;;;;9.00;4.47;;;;;;;10.55;100.00;96672.78;5068694;27;105811;-60
2023/05/19 04:50:41;;;;;;;7.27;5.10;;;;;;;10.61;100.00;96668.31;5068859;27;102020;-61
2023/05/19 04:53:10;;;;;;;10.00;4.60;;;;;;;10.59;100.00;96670.44;5068870;27;105038;-61
2023/05/19 04:55:38;;;;;;;5.33;4.07;;;;;;;10.59;100.00;96667.78;5068617;27;105117;-60
2023/05/19 04:58:05;;;;;;;9.13;5.23;;;;;;;10.56;100.00;96671.72;5068835;27;101946;-60
2023/05/19 05:00:34;;;;;;;7.43;4.40;;;;;;;10.70;100.00;96672.19;5068392;27;105529;-60
2023/05/19 05:03:05;;;;;;;6.17;4.27;;;;;;;10.86;100.00;96672.16;5068112;27;105372;-60
2023/05/19 05:05:32;;;;;;;5.87;4.10;;;;;;;11.01;100.00;96674.25;5068640;27;102131;-60
2023/05/19 05:08:00;;;;;;;7.37;4.33;;;;;;;11.05;100.00;96667.34;5071764;27;105348;-61
2023/05/19 05:10:33;;;;;;;6.03;4.60;;;;;;;11.09;100.00;96663.16;5052472;27;101944;-60
2023/05/19 05:13:01;;;;;;;7.80;4.57;;;;;;;10.99;100.00;96660.34;5068747;27;105612;-60
2023/05/19 05:15:28;;;;;;;10.83;4.90;;;;;;;10.92;100.00;96657.06;5068118;27;106012;-60
2023/05/19 05:17:59;;;;;;;5.77;4.40;;;;;;;10.99;100.00;96660.34;5068658;27;102053;-60
2023/05/19 05:20:27;;;;;;;7.87;4.67;;;;;;;11.10;100.00;96662.09;5068782;27;104996;-60
2023/05/19 05:22:54;;;;;;;7.20;4.07;;;;;;;11.22;100.00;96663.59;5067812;27;104996;-60
2023/05/19 05:25:26;;;;;;;9.77;4.60;;;;;;;11.19;100.00;96663.28;5068618;27;102262;-60
2023/05/19 05:27:54;;;;;;;8.00;4.47;;;;;;;11.23;100.00;96659.88;5068194;27;105148;-61
2023/05/19 05:30:21;;;;;;;6.73;4.00;;;;;;;11.12;100.00;96657.34;5073037;27;102737;-60
2023/05/19 05:32:49;;;;;;;8.40;4.97;;;;;;;11.26;100.00;96661.25;5068431;27;105243;-60
2023/05/19 05:35:28;;;;;;;6.63;4.30;;;;;;;11.43;100.00;96659.31;5067904;27;105500;-60
2023/05/19 05:37:55;;;;;;;7.60;4.23;;;;;;;11.55;100.00;96657.34;5068351;27;101947;-60
2023/05/19 05:40:22;;;;;;;6.70;4.40;;;;;;;11.62;100.00;96657.97;5068349;27;104966;-60
2023/05/19 05:42:50;;;;;;;7.77;4.40;;;;;;;11.53;100.00;96654.09;5067801;27;105117;-60
2023/05/19 05:45:20;;;;;;;6.83;4.20;;;;;;;11.60;100.00;96657.41;5068288;27;102253;-61
2023/05/19 05:47:48;;;;;;;6.17;4.17;;;;;;;11.55;100.00;96662.66;5068317;27;105400;-61
2023/05/19 05:50:16;;;;;;;5.83;4.40;;;;;;;11.60;100.00;96665.41;5073725;27;105516;-61
2023/05/19 05:52:47;;;;;;;7.13;4.07;;;;;;;11.73;100.00;96670.34;5071260;27;105569;-61
2023/05/19 05:55:17;;;;;;;7.40;4.40;;;;;;;11.90;100.00;96665.72;5071469;27;105120;-60
2023/05/19 05:57:44;;;;;;;6.23;4.37;;;;;;;11.95;100.00;96657.78;5071385;27;102177;-61
2023/05/19 06:00:14;;;;;;;4.93;4.33;;;;;;;12.05;100.00;96660.56;5058809;27;105284;-60
2023/05/19 06:02:52;;;;;;;7.30;4.20;;;;;;;12.06;100.00;96656.81;5071046;27;104131;-61
2023/05/19 06:05:21;;;;;;;6.90;4.60;;;;;;;12.32;100.00;96666.66;5071623;27;101894;-61
2023/05/19 06:07:48;;;;;;;5.43;4.20;;;;;;;12.18;100.00;96665.47;5071899;27;104889;-61
2023/05/19 06:10:24;;;;;;;7.33;4.30;;;;;;;12.33;100.00;96668.25;5070915;27;105408;-61
2023/05/19 06:12:51;;;;;;;7.50;4.27;;;;;;;12.21;100.00;96664.97;5074829;27;101875;-61
2023/05/19 06:15:17;;;;;;;6.90;4.10;;;;;;;12.37;100.00;96664.03;5070987;27;105014;-61
2023/05/19 06:18:15;;;;;;;5.97;4.23;;;;;;;12.29;100.00;96665.31;5071497;27;102001;-61
2023/05/19 06:20:42;;;;;;;5.03;3.80;;;;;;;12.38;100.00;96662.97;5066790;27;105229;-62
2023/05/19 06:23:09;;;;;;;6.63;4.50;;;;;;;12.29;100.00;96670.63;5050255;27;104981;-62
2023/05/19 06:25:36;;;;;;;5.77;3.83;;;;;;;12.33;100.00;96666.38;5052495;27;101811;-62
2023/05/19 06:28:03;;;;;;;4.20;3.60;;;;;;;12.34;100.00;96672.53;5066608;27;105516;-62
2023/05/19 06:30:30;;;;;;;4.43;3.90;;;;;;;12.30;100.00;96666.09;5069925;27;104200;-62
2023/05/19 06:33:08;;;;;;;5.67;3.83;;;;;;;12.38;100.00;96668.31;5070824;27;102154;-62
2023/05/19 06:35:37;;;;;;;4.57;3.70;;;;;;;12.36;100.00;96659.75;5065399;27;105172;-62
2023/05/19 06:38:04;;;;;;;8.20;4.07;;;;;;;12.56;100.00;96659.91;5069043;27;103452;-62
2023/05/19 06:40:32;;;;;;;5.93;3.90;;;;;;;12.67;100.00;96653.56;5070666;27;104849;-62
2023/05/19 06:42:59;;;;;;;5.00;3.80;;;;;;;12.48;100.00;96655.84;5070395;27;105717;-62
2023/05/19 06:45:52;;;;;;;6.17;4.00;;;;;;;13.15;100.00;96650.69;5067420;27;102004;-62
2023/05/19 06:48:20;;;;;;;9.33;3.97;;;;;;;13.23;100.00;96656.34;5072197;27;103109;-61
2023/05/19 06:50:49;;;;;;;5.27;3.83;;;;;;;13.16;100.00;96654.97;5059792;27;105548;-60
2023/05/19 06:53:17;;;;;;;5.93;3.80;;;;;;;13.16;100.00;96658.47;5050537;27;102312;-60
2023/05/19 06:55:45;;;;;;;4.40;4.00;;;;;;;13.33;100.00;96655.59;5070774;27;105139;-60
2023/05/19 06:58:13;;;;;;;5.90;4.00;;;;;;;13.37;100.00;96659.34;5073734;27;105397;-60
2023/05/19 07:00:40;;;;;;;6.60;4.10;;;;;;;13.37;100.00;96649.47;5051262;27;105298;-61
2023/05/19 07:03:10;;;;;;;5.37;3.87;;;;;;;13.64;100.00;96657.31;5050054;27;105409;-62
2023/05/19 07:05:38;;;;;;;10.37;3.90;;;;;;;14.09;100.00;96652.06;5070816;27;102295;-62
2023/05/19 07:08:08;;;;;;;6.43;4.70;;;;;;;14.28;100.00;96647.84;5070474;27;103920;-60
2023/05/19 07:10:36;;;;;;;5.27;3.43;;;;;;;14.48;100.00;96647.81;5049380;27;105174;-60
2023/05/19 07:13:08;;;;;;;5.53;4.07;;;;;;;14.52;100.00;96648.91;5057289;27;102052;-60
2023/05/19 07:15:36;;;;;;;12.47;4.57;;;;;;;14.81;100.00;96645.38;5069893;27;104775;-60
2023/05/19 07:18:04;;;;;;;6.83;4.60;;;;;;;15.29;100.00;96652.78;5068928;27;105389;-60
2023/05/19 07:20:30;;;;;;;5.87;4.00;;;;;;;15.29;100.00;96649.28;5074085;27;101968;-61
2023/05/19 07:22:58;;;;;;;4.83;3.90;;;;;;;14.84;100.00;96647.53;5068964;27;104121;-60
2023/05/19 07:25:29;;;;;;;5.03;4.00;;;;;;;14.79;100.00;96649.41;5070270;27;102111;-60
2023/05/19 07:27:56;;;;;;;5.50;3.63;;;;;;;14.31;100.00;96653.44;5069127;27;104938;-61
2023/05/19 07:30:23;;;;;;;6.70;3.87;;;;;;;14.37;100.00;96644.34;5062639;27;101934;-60
2023/05/19 07:32:50;;;;;;;4.90;4.03;;;;;;;14.47;100.00;96648.91;5055407;27;102187;-61
2023/05/19 07:35:17;;;;;;;4.73;4.27;;;;;;;14.66;100.00;96644.63;5065447;27;102878;-60
2023/05/19 07:37:44;;;;;;;5.33;3.67;;;;;;;14.77;100.00;96640.84;5049991;27;103200;-60
2023/05/19 07:40:12;;;;;;;4.83;4.17;;;;;;;14.82;100.00;96643.53;5062730;27;101971;-60
2023/05/19 07:42:40;;;;;;;7.13;4.20;;;;;;;14.61;100.00;96647.28;5072132;27;105235;-60
2023/05/19 07:45:08;;;;;;;5.67;4.37;;;;;;;14.54;100.00;96649.41;5065822;27;102014;-60
2023/05/19 07:47:35;;;;;;;6.07;4.03;;;;;;;14.29;100.00;96650.22;5049032;27;104756;-60
2023/05/19 07:50:02;;;;;;;5.50;3.90;;;;;;;14.39;100.00;96646.78;5050680;27;103466;-60
2023/05/19 07:52:29;;;;;;;6.90;4.73;;;;;;;14.31;100.00;96644.63;5048519;27;102358;-60
2023/05/19 07:54:56;;;;;;;6.40;5.10;;;;;;;13.94;100.00;96641.31;5049564;27;105031;-61
2023/05/19 07:57:23;;;;;;;5.87;4.67;;;;;;;14.04;100.00;96649.38;5065190;27;103005;-60
2023/05/19 07:59:51;;;;;;;5.70;4.03;;;;;;;14.10;100.00;96646.44;5055257;27;102282;-60
2023/05/19 08:02:18;;;;;;;6.07;4.60;;;;;;;14.16;100.00;96644.56;5071468;27;105248;-60
2023/05/19 08:04:45;;;;;;;6.20;4.57;;;;;;;14.31;100.00;96641.94;5065933;27;102308;-60
2023/05/19 08:07:12;;;;;;;5.90;4.60;;;;;;;14.24;100.00;96641.41;5048604;27;105150;-60
2023/05/19 08:09:38;;;;;;;5.30;4.77;;;;;;;14.46;100.00;96644.63;5047568;27;105878;-60
2023/05/19 08:12:06;;;;;;;5.90;4.43;;;;;;;14.45;100.00;96640.34;5048324;27;102298;-60
2023/05/19 08:14:33;;;;;;;7.73;4.77;;;;;;;14.45;100.00;96643.03;5049962;27;102353;-60
2023/05/19 08:17:02;;;;;;;5.27;4.53;;;;;;;14.51;100.00;96644.63;5049600;27;103164;-60
2023/05/19 08:19:29;;;;;;;6.33;4.60;;;;;;;14.57;100.00;96627.47;5065481;27;102451;-60
2023/05/19 08:21:56;;;;;;;6.30;4.30;;;;;;;14.36;100.00;96639.25;5068731;27;104862;-60
2023/05/19 08:24:23;;;;;;;5.47;4.60;;;;;;;14.61;100.00;96637.38;5071349;27;105734;-59
2023/05/19 08:26:50;;;;;;;5.60;4.63;;;;;;;14.64;100.00;96636.84;5068726;27;104867;-60
2023/05/19 08:29:17;;;;;;;6.43;4.97;;;;;;;14.74;100.00;96630.69;5067835;27;105886;-60
2023/05/19 08:31:44;;;;;;;5.90;4.20;;;;;;;14.91;100.00;96633.84;5068140;27;102055;-60
2023/05/19 08:34:12;;;;;;;5.53;4.40;;;;;;;15.03;100.00;96632.50;5068447;27;105133;-60
2023/05/19 08:36:39;;;;;;;5.30;4.50;;;;;;;15.23;100.00;96636.97;5049311;27;105761;-60
2023/05/19 08:39:06;;;;;;;7.63;5.10;;;;;;;14.99;100.00;96636.00;5048100;27;102463;-60
2023/05/19 08:41:33;;;;;;;8.40;4.43;;;;;;;15.29;100.00;96635.88;5049346;27;102271;-60
2023/05/19 08:44:00;;;;;;;4.90;4.40;;;;;;;15.05;100.00;96634.91;5055953;27;105079;-60
2023/05/19 08:46:29;;;;;;;4.90;4.40;;;;;;;14.94;100.00;96628.75;5055054;27;102186;-60
2023/05/19 08:49:01;;;;;;;4.90;4.33;;;;;;;14.69;100.00;96628.00;5047195;27;105255;-60
2023/05/19 08:51:39;;;;;;;5.27;4.30;;;;;;;14.79;100.00;96619.97;5047785;27;101938;-60
2023/05/19 08:54:14;;;;;;;4.87;4.20;;;;;;;15.46;100.00;96625.66;5047668;27;105756;-60
2023/05/19 08:56:43;;;;;;;5.97;4.30;;;;;;;15.54;100.00;96631.25;5047248;27;105187;-60
2023/05/19 08:59:10;;;;;;;6.20;4.90;;;;;;;15.53;100.00;96629.66;5060182;27;102348;-60
2023/05/19 09:01:38;;;;;;;8.27;4.57;;;;;;;15.96;100.00;96628.09;5068279;27;105157;-60
2023/05/19 09:04:06;;;;;;;4.37;3.97;;;;;;;16.06;100.00;96620.75;5067089;27;105892;-62
2023/05/19 09:06:34;;;;;;;5.67;4.50;;;;;;;15.97;100.00;96614.38;5051527;27;101929;-61
2023/05/19 09:09:01;;;;;;;5.97;4.17;;;;;;;15.85;100.00;96613.13;5060980;27;104081;-61
2023/05/19 09:11:28;;;;;;;4.53;4.13;;;;;;;16.10;100.00;96616.47;5057869;27;102155;-59
2023/05/19 09:13:55;;;;;;;8.63;4.63;;;;;;;16.06;100.00;96614.59;5057981;27;105191;-60
2023/05/19 09:16:21;;;;;;;6.67;4.17;;;;;;;15.71;100.00;96621.00;5066550;27;105580;-60
2023/05/19 09:18:55;;;;;;;5.03;4.47;;;;;;;15.80;100.00;96613.16;5066182;27;101931;-60
2023/05/19 09:21:29;;;;;;;6.53;4.50;;;;;;;15.65;100.00;96613.25;5067906;27;105115;-60
2023/05/19 09:23:58;;;;;;;6.27;4.93;;;;;;;15.43;100.00;96621.66;5067610;27;105592;-60
2023/05/19 09:26:36;;;;;;;5.93;4.67;;;;;;;15.37;100.00;96614.72;5070941;27;102102;-60
2023/05/19 09:29:10;;;;;;;4.97;4.20;;;;;;;15.21;100.00;96617.72;5059702;27;102430;-60
2023/05/19 09:31:37;;;;;;;4.23;3.83;;;;;;;15.43;100.00;96613.59;5053651;27;105445;-60
2023/05/19 09:34:04;;;;;;;6.20;4.37;;;;;;;15.43;100.00;96610.94;5065610;27;102513;-60
2023/05/19 09:36:31;;;;;;;5.90;4.80;;;;;;;15.30;100.00;96614.19;5052711;27;103195;-60
2023/05/19 09:39:00;;;;;;;5.80;5.20;;;;;;;15.20;100.00;96616.09;5064616;27;102106;-60
2023/05/19 09:41:27;;;;;;;5.63;5.13;;;;;;;15.10;100.00;96608.09;5070768;27;105175;-60
2023/05/19 09:43:55;;;;;;;5.93;5.30;;;;;;;14.59;100.00;96601.25;5068380;27;105961;-60
2023/05/19 09:46:27;;;;;;;5.87;4.80;;;;;;;14.19;100.00;96603.94;5072064;27;102131;-60
2023/05/19 09:48:57;;;;;;;7.63;5.53;;;;;;;14.29;100.00;96593.25;5071160;27;102115;-60
2023/05/19 09:51:24;;;;;;;6.80;4.80;;;;;;;13.76;100.00;96596.41;5057106;27;102524;-60
2023/05/19 09:53:52;;;;;;;5.83;5.33;;;;;;;14.02;100.00;96595.38;5055238;27;101732;-60
2023/05/19 09:56:22;;;;;;;6.33;5.53;;;;;;;14.12;100.00;96600.72;5066701;27;105405;-60
2023/05/19 09:58:49;;;;;;;6.57;5.17;;;;;;;14.58;100.00;96592.44;5065892;27;102124;-60
2023/05/19 10:01:17;;;;;;;5.97;4.60;;;;;;;14.88;100.00;96588.88;5050651;27;105157;-60
2023/05/19 10:03:45;;;;;;;5.23;4.53;;;;;;;15.07;100.00;96597.91;5056696;27;102695;-60
2023/05/19 10:06:14;;;;;;;4.97;4.33;;;;;;;14.97;100.00;96597.94;5056396;27;102333;-60
2023/05/19 10:08:42;;;;;;;4.30;3.90;;;;;;;15.15;100.00;96592.00;5051832;27;102527;-60
2023/05/19 10:11:11;;;;;;;5.57;4.93;;;;;;;15.22;100.00;96589.84;5049452;27;105392;-60
2023/05/19 10:13:41;;;;;;;5.07;3.93;;;;;;;15.66;100.00;96588.03;5055312;27;102007;-60
2023/05/19 10:16:09;;;;;;;6.17;4.40;;;;;;;15.34;100.00;96579.63;5050976;27;103981;-60
2023/05/19 10:18:37;;;;;;;6.27;4.70;;;;;;;15.16;100.00;96588.25;5051791;27;102088;-60
2023/05/19 10:21:07;;;;;;;5.03;4.57;;;;;;;14.96;100.00;96575.75;5050430;27;101864;-60
2023/05/19 10:23:34;;;;;;;6.97;4.83;;;;;;;14.52;100.00;96574.78;5050993;27;103140;-60
2023/05/19 10:26:05;;;;;;;5.10;4.47;;;;;;;14.93;100.00;96584.31;5051847;27;102031;-60
2023/05/19 10:28:37;;;;;;;4.07;3.67;;;;;;;15.33;100.00;96581.53;5067197;27;102751;-60
2023/05/19 10:31:08;;;;;;;4.80;4.23;;;;;;;15.45;100.00;96581.19;5056044;27;105830;-60
2023/05/19 10:33:47;;;;;;;5.33;4.30;;;;;;;15.63;100.00;96581.34;5051631;27;101747;-60
2023/05/19 10:36:35;;;;;;;4.37;3.97;;;;;;;15.31;100.00;96578.25;5073332;27;102855;-60
2023/05/19 10:39:06;;;;;;;4.50;3.60;;;;;;;14.63;100.00;96570.19;5071696;27;102244;-60
2023/05/19 10:41:42;;;;;;;6.83;4.20;;;;;;;14.82;100.00;96564.00;5071887;27;102722;-60
2023/05/19 10:44:18;;;;;;;4.33;3.93;;;;;;;15.29;100.00;96567.03;5065140;27;103809;-60
2023/05/19 10:46:46;;;;;;;4.90;4.40;;;;;;;15.89;100.00;96574.75;5052624;27;101927;-60
2023/05/19 10:49:20;;;;;;;5.33;4.03;;;;;;;16.22;100.00;96570.47;5069690;27;105010;-60
2023/05/19 10:51:47;;;;;;;4.57;4.17;;;;;;;15.67;100.00;96576.22;5069305;27;105738;-60
2023/05/19 10:54:16;;;;;;;6.27;4.13;;;;;;;15.79;100.00;96557.91;5064931;27;103690;-60
2023/05/19 10:56:46;;;;;;;6.70;4.27;;;;;;;16.20;100.00;96569.97;5051053;27;102838;-60
2023/05/19 10:59:30;;;;;;;4.60;4.00;;;;;;;16.69;100.00;96554.50;5052645;27;105370;-60
2023/05/19 11:02:03;;;;;;;4.50;4.10;;;;;;;16.54;100.00;96554.63;5049920;27;105046;-60
2023/05/19 11:04:40;;;;;;;4.20;3.80;;;;;;;17.00;100.00;96553.88;5051208;27;102534;-60
2023/05/19 11:07:10;;;;;;;6.30;4.40;;;;;;;16.92;100.00;96559.88;5060936;27;102101;-60
2023/05/19 11:09:40;;;;;;;5.97;4.13;;;;;;;16.78;100.00;96550.91;5071243;27;102963;-60
2023/05/19 11:12:09;;;;;;;5.03;4.37;;;;;;;16.53;100.00;96553.03;5058982;27;103836;-60
2023/05/19 11:14:38;;;;;;;4.60;4.20;;;;;;;16.56;100.00;96557.84;5049549;27;101962;-60
2023/05/19 11:17:14;;;;;;;5.07;4.57;;;;;;;16.43;100.00;96553.13;5051122;27;103076;-60
2023/05/19 11:19:52;;;;;;;7.97;5.00;;;;;;;15.78;100.00;96553.63;5054004;27;103048;-60
2023/05/19 11:22:23;;;;;;;8.70;7.57;;;;;;;15.64;100.00;96555.34;5054488;27;101832;-60
2023/05/19 11:24:52;;;;;;;7.00;5.03;;;;;;;15.73;100.00;96553.66;5051380;27;103145;-60
2023/05/19 11:27:27;;;;;;;7.67;5.63;;;;;;;15.31;100.00;96550.69;5032294;27;102401;-60
2023/05/19 11:29:55;;;;;;;5.33;4.70;;;;;;;15.52;100.00;96562.91;5048947;27;105482;-60